Time;durP1;ratioP1;P1;durP2;ratioP2;P2;SDS_P1;SDS_P2;PMS_P1;PMS_P2;Temp;Humidity;BMP_temperature;BMP_pressure;BME280_temperature;BME280_humidity;BME280_pressure;Samples;Min_cycle;Max_cycle;Signal;HPM_P1;HPM_P2
2023/08/12 00:00:41;;;;;;;10.40;5.88;;;;;;;17.07;100.00;96978.88;5004653;28;20049;-68
2023/08/12 00:03:06;;;;;;;14.90;4.97;;;;;;;16.96;100.00;96989.19;5002201;28;20057;-69
2023/08/12 00:05:31;;;;;;;9.02;4.63;;;;;;;16.96;100.00;96987.22;5008184;28;20044;-70
2023/08/12 00:07:57;;;;;;;7.60;4.60;;;;;;;16.96;100.00;96990.00;5010501;28;20022;-70
2023/08/12 00:10:22;;;;;;;7.20;4.90;;;;;;;17.02;100.00;96984.81;5009836;28;20036;-69
2023/08/12 00:12:48;;;;;;;8.98;4.53;;;;;;;17.04;100.00;96973.34;5007318;28;20037;-70
2023/08/12 00:15:13;;;;;;;10.10;4.55;;;;;;;17.00;100.00;96974.16;5009658;28;20026;-69
2023/08/12 00:17:41;;;;;;;8.18;4.55;;;;;;;17.06;100.00;96971.75;5006225;28;20152;-69
2023/08/12 00:20:08;;;;;;;7.03;4.88;;;;;;;17.02;100.00;96970.22;5008011;28;20029;-70
2023/08/12 00:22:34;;;;;;;6.90;4.72;;;;;;;16.83;100.00;96966.72;5006381;28;20081;-69
2023/08/12 00:24:59;;;;;;;9.60;6.47;;;;;;;16.70;100.00;96962.78;5005364;28;20096;-69
2023/08/12 00:27:25;;;;;;;9.77;5.30;;;;;;;16.73;100.00;96962.78;5009944;28;20493;-69
2023/08/12 00:29:50;;;;;;;9.50;4.15;;;;;;;16.85;100.00;96960.78;5002615;28;20034;-69
2023/08/12 00:32:15;;;;;;;9.07;4.63;;;;;;;16.83;100.00;96955.66;5006490;28;20028;-69
2023/08/12 00:34:41;;;;;;;6.47;4.70;;;;;;;16.87;100.00;96961.97;5008980;28;20034;-69
2023/08/12 00:37:07;;;;;;;5.97;4.63;;;;;;;16.96;100.00;96959.56;5007086;28;20092;-69
2023/08/12 00:39:32;;;;;;;7.38;4.78;;;;;;;16.96;100.00;96954.03;5015079;28;20046;-69
2023/08/12 00:41:58;;;;;;;9.38;4.95;;;;;;;16.91;100.00;96948.13;5022328;28;20046;-70
2023/08/12 00:44:23;;;;;;;11.48;5.40;;;;;;;16.70;100.00;96958.03;5019471;28;20077;-69
2023/08/12 00:46:49;;;;;;;9.25;4.90;;;;;;;16.44;100.00;96959.31;5022176;28;20068;-72
2023/08/12 00:49:15;;;;;;;7.05;5.07;;;;;;;16.24;100.00;96950.66;5017169;28;20053;-70
2023/08/12 00:51:43;;;;;;;11.70;4.93;;;;;;;16.30;100.00;96948.31;5003465;28;20042;-70
2023/08/12 00:54:16;;;;;;;9.45;4.65;;;;;;;16.34;100.00;96951.84;5010480;28;20045;-68
2023/08/12 00:56:42;;;;;;;8.05;4.68;;;;;;;16.33;100.00;96953.00;5006114;28;20427;-68
2023/08/12 00:59:09;;;;;;;8.48;4.95;;;;;;;16.28;100.00;96956.19;5019021;28;20025;-70
2023/08/12 01:01:38;;;;;;;7.72;4.70;;;;;;;16.30;100.00;96949.09;5028194;28;20034;-69
2023/08/12 01:04:04;;;;;;;6.97;5.03;;;;;;;16.32;100.00;96946.72;5026708;28;20038;-69
2023/08/12 01:06:29;;;;;;;7.35;4.93;;;;;;;16.34;100.00;96955.38;5009522;28;20487;-69
2023/08/12 01:08:54;;;;;;;8.98;5.32;;;;;;;16.34;100.00;96955.38;5008794;28;20488;-70
2023/08/12 01:11:27;;;;;;;7.38;5.00;;;;;;;16.32;100.00;96951.47;5008689;28;20040;-68
2023/08/12 01:14:12;;;;;;;9.50;5.30;;;;;;;16.18;100.00;96943.97;5006528;28;20461;-69
2023/08/12 01:16:41;;;;;;;8.15;4.78;;;;;;;16.10;100.00;96948.72;5018246;28;20034;-69
2023/08/12 01:19:10;;;;;;;11.68;4.57;;;;;;;16.08;100.00;96942.00;5008759;28;20362;-67
2023/08/12 01:21:43;;;;;;;7.17;4.70;;;;;;;15.98;100.00;96935.31;5006468;28;20448;-70
2023/08/12 01:24:08;;;;;;;7.82;4.75;;;;;;;15.96;100.00;96937.69;4997506;28;20364;-69
2023/08/12 01:26:34;;;;;;;9.00;4.78;;;;;;;16.04;100.00;96933.72;5009301;28;20380;-69
2023/08/12 01:28:59;;;;;;;8.05;5.00;;;;;;;15.99;100.00;96934.94;5010300;28;20030;-69
2023/08/12 01:31:38;;;;;;;7.78;4.78;;;;;;;16.04;100.00;96939.25;4986330;28;20037;-69
2023/08/12 01:34:26;;;;;;;7.07;4.85;;;;;;;16.08;100.00;96933.72;5009464;28;20033;-69
2023/08/12 01:36:56;;;;;;;7.00;4.55;;;;;;;16.07;100.00;96930.19;5010883;28;20034;-69
2023/08/12 01:39:23;;;;;;;7.85;4.75;;;;;;;16.03;100.00;96938.47;5010530;28;22451;-69
2023/08/12 01:41:50;;;;;;;8.05;4.80;;;;;;;16.01;100.00;96932.56;5005314;28;20026;-70
2023/08/12 01:44:16;;;;;;;6.88;5.03;;;;;;;16.00;100.00;96933.72;5009153;28;20394;-70
2023/08/12 01:46:43;;;;;;;10.15;5.20;;;;;;;16.01;100.00;96924.28;5010048;28;20029;-69
2023/08/12 01:49:09;;;;;;;7.88;4.45;;;;;;;16.02;100.00;96914.00;5014572;28;20057;-69
2023/08/12 01:51:34;;;;;;;9.68;5.00;;;;;;;16.04;100.00;96922.66;5011859;28;20057;-69
2023/08/12 01:54:00;;;;;;;9.13;4.78;;;;;;;16.02;100.00;96925.03;5008049;28;20022;-69
2023/08/12 01:56:25;;;;;;;9.50;5.25;;;;;;;15.98;100.00;96916.75;5006701;28;20061;-70
2023/08/12 01:58:50;;;;;;;15.13;5.60;;;;;;;15.98;100.00;96918.75;5014798;28;20030;-69
2023/08/12 02:01:16;;;;;;;10.00;5.65;;;;;;;15.94;100.00;96923.50;5009980;28;20427;-70
2023/08/12 02:03:41;;;;;;;9.05;5.55;;;;;;;15.86;100.00;96919.94;5014512;28;20037;-70
2023/08/12 02:06:06;;;;;;;7.32;5.43;;;;;;;15.88;100.00;96916.78;5014481;28;20037;-70
2023/08/12 02:08:32;;;;;;;7.20;5.07;;;;;;;15.93;100.00;96919.94;5009937;28;20446;-69
2023/08/12 02:10:57;;;;;;;12.02;5.40;;;;;;;15.97;100.00;96922.69;5015149;28;20049;-70
2023/08/12 02:13:23;;;;;;;13.43;5.40;;;;;;;15.96;100.00;96915.59;5006449;28;20113;-70
2023/08/12 02:15:48;;;;;;;7.07;4.85;;;;;;;15.90;100.00;96917.16;5008417;28;20371;-69
2023/08/12 02:18:13;;;;;;;11.18;5.40;;;;;;;15.91;100.00;96914.00;5014711;28;20066;-70
2023/08/12 02:20:40;;;;;;;10.00;5.20;;;;;;;15.91;100.00;96918.75;5014150;28;20030;-70
2023/08/12 02:23:06;;;;;;;9.73;5.20;;;;;;;15.88;100.00;96925.84;5014508;28;20033;-70
2023/08/12 02:25:31;;;;;;;7.40;5.18;;;;;;;15.83;100.00;96921.53;5006549;28;20407;-70
2023/08/12 02:27:57;;;;;;;12.88;5.63;;;;;;;15.83;100.00;96921.53;5018340;28;20026;-70
2023/08/12 02:30:22;;;;;;;7.00;5.13;;;;;;;15.85;100.00;96916.38;5017734;28;20507;-70
2023/08/12 02:32:48;;;;;;;13.40;5.40;;;;;;;15.76;100.00;96915.22;5016871;28;20395;-70
2023/08/12 02:35:13;;;;;;;11.98;5.35;;;;;;;15.49;100.00;96916.38;5013863;28;20038;-68
2023/08/12 02:37:38;;;;;;;12.00;4.93;;;;;;;15.47;100.00;96917.97;5011375;28;20030;-69
2023/08/12 02:40:05;;;;;;;7.35;5.10;;;;;;;15.53;100.00;96921.91;5009214;28;20055;-69
2023/08/12 02:42:30;;;;;;;10.73;4.93;;;;;;;15.58;100.00;96913.22;5015056;28;20037;-69
2023/08/12 02:44:56;;;;;;;14.10;5.20;;;;;;;15.62;100.00;96913.22;5001383;28;20026;-70
2023/08/12 02:47:21;;;;;;;8.60;5.30;;;;;;;15.67;100.00;96913.59;5002006;28;20042;-70
2023/08/12 02:49:47;;;;;;;9.23;5.03;;;;;;;15.71;100.00;96905.31;5013578;28;20093;-67
2023/08/12 02:52:13;;;;;;;6.82;4.65;;;;;;;15.76;100.00;96916.00;5009111;28;20030;-70
2023/08/12 02:54:38;;;;;;;7.78;5.10;;;;;;;15.79;100.00;96908.91;5010484;28;20373;-70
2023/08/12 02:57:04;;;;;;;7.10;4.93;;;;;;;15.81;100.00;96917.56;5006062;28;20034;-70
2023/08/12 02:59:30;;;;;;;7.45;4.90;;;;;;;15.86;100.00;96915.22;5011316;28;20491;-71
2023/08/12 03:01:55;;;;;;;7.65;5.00;;;;;;;15.90;100.00;96908.88;5013802;28;20057;-70
2023/08/12 03:04:20;;;;;;;6.68;4.65;;;;;;;15.82;100.00;96919.94;5013481;28;20097;-69
2023/08/12 03:06:46;;;;;;;7.50;4.63;;;;;;;15.77;100.00;96914.84;5008833;28;20030;-69
2023/08/12 03:09:11;;;;;;;10.23;4.70;;;;;;;15.76;100.00;96907.72;5014599;28;20086;-71
2023/08/12 03:11:36;;;;;;;9.70;5.03;;;;;;;15.74;100.00;96904.56;5009573;28;20040;-71
2023/08/12 03:14:02;;;;;;;7.93;4.85;;;;;;;15.68;100.00;96912.44;5005720;28;20097;-69
2023/08/12 03:16:27;;;;;;;7.38;5.20;;;;;;;15.66;100.00;96908.47;5012130;28;20413;-69
2023/08/12 03:18:53;;;;;;;8.43;5.22;;;;;;;15.64;100.00;96913.63;5014193;28;20030;-70
2023/08/12 03:21:18;;;;;;;7.47;4.70;;;;;;;15.74;100.00;96914.81;5007138;28;20026;-68
2023/08/12 03:23:44;;;;;;;8.02;5.88;;;;;;;15.83;100.00;96912.47;5007648;28;20084;-70
2023/08/12 03:26:09;;;;;;;7.68;5.22;;;;;;;15.87;100.00;96916.00;5014476;28;20539;-69
2023/08/12 03:28:35;;;;;;;9.30;5.63;;;;;;;15.76;100.00;96907.72;5014024;28;20378;-69
2023/08/12 03:31:00;;;;;;;9.27;5.07;;;;;;;15.72;100.00;96915.19;5010244;28;20029;-69
2023/08/12 03:33:25;;;;;;;8.23;4.93;;;;;;;15.78;100.00;96910.88;5016424;28;20034;-69
2023/08/12 03:35:51;;;;;;;10.95;5.20;;;;;;;15.86;100.00;96908.88;5014095;28;20044;-69
2023/08/12 03:38:16;;;;;;;6.22;4.55;;;;;;;15.88;100.00;96908.50;5013394;28;20034;-69
2023/08/12 03:40:42;;;;;;;6.75;4.78;;;;;;;15.82;100.00;96910.88;5023794;28;20026;-68
2023/08/12 03:43:08;;;;;;;10.40;5.88;;;;;;;15.67;100.00;96908.09;5012555;28;20022;-68
2023/08/12 03:45:40;;;;;;;9.52;5.60;;;;;;;15.56;100.00;96914.81;5012778;28;20505;-69
2023/08/12 03:48:05;;;;;;;8.25;5.07;;;;;;;15.59;100.00;96909.28;5012607;28;20026;-68
2023/08/12 03:50:34;;;;;;;10.63;5.70;;;;;;;15.61;100.00;96926.25;5011169;28;20048;-69
2023/08/12 03:52:59;;;;;;;8.40;5.15;;;;;;;15.66;100.00;96914.81;5009274;28;20030;-68
2023/08/12 03:55:25;;;;;;;7.95;5.07;;;;;;;15.65;100.00;96924.25;5010648;28;20056;-69
2023/08/12 03:57:51;;;;;;;7.88;4.50;;;;;;;15.71;100.00;96923.88;5012367;28;20391;-69
2023/08/12 04:00:17;;;;;;;8.75;5.45;;;;;;;15.80;100.00;96918.75;5012520;28;20041;-67
2023/08/12 04:02:43;;;;;;;8.20;5.05;;;;;;;15.61;100.00;96917.97;5013014;28;20395;-69
2023/08/12 04:05:08;;;;;;;12.50;6.28;;;;;;;15.23;100.00;96914.78;5013462;28;20391;-70
2023/08/12 04:07:36;;;;;;;10.85;6.40;;;;;;;15.11;100.00;96912.41;5025707;28;20080;-70
2023/08/12 04:10:01;;;;;;;10.43;5.85;;;;;;;15.15;100.00;96913.19;5012525;28;20061;-70
2023/08/12 04:12:27;;;;;;;8.88;5.15;;;;;;;15.22;100.00;96910.44;5013466;28;20026;-69
2023/08/12 04:14:52;;;;;;;8.93;6.20;;;;;;;15.35;100.00;96910.84;5012362;28;20030;-68
2023/08/12 04:17:18;;;;;;;10.55;5.70;;;;;;;15.48;100.00;96906.53;5004580;28;20391;-68
2023/08/12 04:19:43;;;;;;;10.80;5.38;;;;;;;15.55;100.00;96905.72;5010519;28;20060;-69
2023/08/12 04:22:08;;;;;;;8.80;5.15;;;;;;;15.78;100.00;96910.88;5010155;28;20117;-69
2023/08/12 04:24:34;;;;;;;12.45;5.50;;;;;;;16.01;100.00;96910.47;5010387;28;20638;-69
2023/08/12 04:26:59;;;;;;;9.52;5.30;;;;;;;16.27;100.00;96911.19;5006900;28;20030;-68
2023/08/12 04:29:25;;;;;;;8.45;5.22;;;;;;;16.39;100.00;96908.00;5007950;28;20418;-68
2023/08/12 04:31:52;;;;;;;10.27;5.10;;;;;;;16.54;100.00;96916.22;5005818;28;20411;-69
2023/08/12 04:34:17;;;;;;;8.27;5.25;;;;;;;16.63;100.00;96908.28;5004059;28;20451;-68
2023/08/12 04:36:43;;;;;;;8.90;4.53;;;;;;;16.56;100.00;96909.09;5011144;28;20037;-68
2023/08/12 04:39:08;;;;;;;6.95;4.88;;;;;;;16.53;100.00;96906.34;5003582;28;20026;-68
2023/08/12 04:41:33;;;;;;;7.13;5.05;;;;;;;16.50;100.00;96899.66;5010003;28;20030;-69
2023/08/12 04:43:59;;;;;;;7.93;4.88;;;;;;;16.56;100.00;96905.56;5011672;28;20030;-68
2023/08/12 04:46:24;;;;;;;9.32;4.93;;;;;;;16.61;100.00;96910.69;5011716;28;20109;-69
2023/08/12 04:48:49;;;;;;;6.10;4.28;;;;;;;16.76;100.00;96911.41;5011835;28;20038;-68
2023/08/12 04:51:15;;;;;;;8.85;5.15;;;;;;;16.78;100.00;96917.31;5012048;28;20018;-69
2023/08/12 04:53:40;;;;;;;10.57;5.35;;;;;;;16.78;100.00;96915.34;5009382;28;20052;-69
2023/08/12 04:56:06;;;;;;;8.18;4.95;;;;;;;16.81;100.00;96913.75;5003067;28;20033;-68
2023/08/12 04:58:31;;;;;;;8.23;4.97;;;;;;;16.86;100.00;96916.13;5012136;22;20124;-65
2023/08/12 05:00:57;;;;;;;7.88;4.68;;;;;;;16.97;100.00;96913.31;4991703;28;20034;-65
2023/08/12 05:03:22;;;;;;;6.25;4.50;;;;;;;17.07;100.00;96914.41;5002107;28;20030;-65
2023/08/12 05:05:52;;;;;;;8.82;5.55;;;;;;;17.16;100.00;96912.81;5001317;28;20026;-65
2023/08/12 05:08:18;;;;;;;10.48;4.88;;;;;;;17.21;100.00;96906.03;4998631;28;20110;-65
2023/08/12 05:10:43;;;;;;;6.78;5.10;;;;;;;17.23;100.00;96911.16;5028887;28;20101;-65
2023/08/12 05:13:09;;;;;;;7.88;4.57;;;;;;;17.12;100.00;96905.69;5023138;28;20022;-65
2023/08/12 05:15:36;;;;;;;6.93;4.80;;;;;;;17.35;100.00;96908.69;5023448;28;20034;-68
2023/08/12 05:18:02;;;;;;;7.40;4.65;;;;;;;17.65;100.00;96903.75;5023138;28;20164;-65
2023/08/12 05:20:27;;;;;;;7.75;4.45;;;;;;;17.88;100.00;96911.47;5023208;28;20517;-65
2023/08/12 05:22:53;;;;;;;5.93;4.28;;;;;;;17.99;100.00;96905.84;5013823;28;20597;-65
2023/08/12 05:25:18;;;;;;;7.22;4.53;;;;;;;18.29;100.00;96897.63;5022025;28;20052;-65
2023/08/12 05:27:44;;;;;;;6.88;4.50;;;;;;;18.54;100.00;96908.41;5020657;28;20075;-64
2023/08/12 05:30:10;;;;;;;5.53;4.10;;;;;;;19.27;100.00;96900.75;5026034;28;20441;-64
2023/08/12 05:32:35;;;;;;;8.57;4.13;;;;;;;19.66;100.00;96904.09;5023411;28;20520;-65
2023/08/12 05:35:00;;;;;;;8.30;4.30;;;;;;;19.82;100.00;96907.03;5018058;28;20033;-65
2023/08/12 05:37:26;;;;;;;8.68;4.50;;;;;;;19.84;100.00;96917.72;5016325;28;20057;-65
2023/08/12 05:39:51;;;;;;;8.88;4.90;;;;;;;19.78;100.00;96925.00;5018062;28;20101;-64
2023/08/12 05:42:16;;;;;;;12.02;5.60;;;;;;;19.64;100.00;96928.75;5026928;28;20021;-65
2023/08/12 05:44:42;;;;;;;6.57;4.50;;;;;;;19.37;100.00;96932.31;5034148;28;20017;-65
2023/08/12 05:47:08;;;;;;;6.78;4.30;;;;;;;19.26;100.00;96932.47;5019571;28;20072;-65
2023/08/12 05:49:33;;;;;;;5.90;4.30;;;;;;;19.30;100.00;96926.88;5016520;28;20033;-65
2023/08/12 05:51:59;;;;;;;10.85;6.10;;;;;;;19.77;100.00;96931.75;5029731;28;20101;-66
2023/08/12 05:54:24;;;;;;;7.38;5.03;;;;;;;20.16;100.00;96925.50;5021781;28;20145;-65
2023/08/12 05:56:50;;;;;;;7.63;4.15;;;;;;;20.28;100.00;96934.47;5029804;28;20026;-65
2023/08/12 05:59:15;;;;;;;7.47;5.07;;;;;;;20.26;100.00;96929.31;5028827;28;20040;-65
2023/08/12 06:01:41;;;;;;;8.75;5.13;;;;;;;20.27;100.00;96924.53;5021072;28;20025;-65
2023/08/12 06:04:06;;;;;;;8.70;4.45;;;;;;;20.24;100.00;96917.84;5026731;28;20029;-65
2023/08/12 06:06:32;;;;;;;8.38;5.05;;;;;;;20.21;100.00;96915.91;5020126;28;20037;-66
2023/08/12 06:08:57;;;;;;;9.43;5.03;;;;;;;20.28;100.00;96920.56;5013918;28;20510;-66
2023/08/12 06:11:23;;;;;;;7.97;4.68;;;;;;;20.36;100.00;96921.97;5022271;28;20398;-67
2023/08/12 06:13:48;;;;;;;8.98;4.65;;;;;;;20.35;100.00;96921.19;5023513;28;20386;-67
2023/08/12 06:16:13;;;;;;;6.07;4.28;;;;;;;20.40;100.00;96926.28;5013795;28;20026;-66
2023/08/12 06:18:39;;;;;;;9.10;4.95;;;;;;;20.36;100.00;96925.53;5014078;28;20423;-67
2023/08/12 06:21:04;;;;;;;7.35;4.93;;;;;;;20.50;100.00;96927.28;5015507;28;20110;-66
2023/08/12 06:23:30;;;;;;;7.60;4.40;;;;;;;20.58;100.00;96928.72;5034270;28;20032;-67
2023/08/12 06:25:55;;;;;;;10.30;5.25;;;;;;;20.74;100.00;96921.66;5021697;28;20061;-67
2023/08/12 06:28:20;;;;;;;9.90;4.57;;;;;;;20.94;100.00;96919.66;5020652;28;20025;-66
2023/08/12 06:30:48;;;;;;;9.07;5.20;;;;;;;21.15;100.00;96921.19;5015540;28;20038;-66
2023/08/12 06:33:14;;;;;;;8.10;4.45;;;;;;;21.35;100.00;96931.50;5009879;28;20029;-67
2023/08/12 06:35:39;;;;;;;6.05;4.47;;;;;;;21.48;100.00;96929.63;5016795;28;20032;-67
2023/08/12 06:38:05;;;;;;;6.47;4.13;;;;;;;;;;5020111;28;20445;-67
2023/08/12 06:40:30;;;;;;;6.65;4.22;;;;;;;21.73;100.00;96934.63;5017041;28;20084;-67
2023/08/12 06:42:56;;;;;;;7.05;4.40;;;;;;;22.45;100.00;96932.00;5026955;28;20026;-67
2023/08/12 06:45:21;;;;;;;9.32;4.60;;;;;;;22.78;99.13;96937.47;5025275;28;20037;-66
2023/08/12 06:47:47;;;;;;;7.57;4.28;;;;;;;22.83;96.33;96937.75;5013345;28;20148;-66
2023/08/12 06:50:12;;;;;;;7.45;4.25;;;;;;;22.47;100.00;96930.38;5018650;28;20035;-66
2023/08/12 06:52:38;;;;;;;7.30;4.03;;;;;;;22.54;100.00;96932.16;5021645;28;20025;-67
2023/08/12 06:55:03;;;;;;;5.97;3.90;;;;;;;22.89;99.37;96924.78;5017832;28;20390;-67
2023/08/12 06:57:29;;;;;;;6.82;4.20;;;;;;;21.89;100.00;96928.22;5022861;28;20034;-67
2023/08/12 06:59:54;;;;;;;10.30;5.35;;;;;;;21.33;100.00;96911.66;5019298;28;20065;-67
2023/08/12 07:02:19;;;;;;;6.47;4.75;;;;;;;21.26;100.00;96925.72;5023039;28;20052;-67
2023/08/12 07:04:45;;;;;;;5.80;4.25;;;;;;;22.28;100.00;96920.91;5018938;28;20033;-67
2023/08/12 07:07:10;;;;;;;7.40;4.90;;;;;;;23.61;95.66;96924.66;5018823;28;20478;-65
2023/08/12 07:09:36;;;;;;;7.45;4.60;;;;;;;24.86;88.25;96942.03;5015306;28;20026;-66
2023/08/12 07:12:01;;;;;;;8.20;4.20;;;;;;;25.74;80.37;96936.25;5020790;28;20029;-66
2023/08/12 07:14:28;;;;;;;9.02;4.35;;;;;;;26.58;73.07;96950.44;5021046;28;20034;-66
2023/08/12 07:16:53;;;;;;;5.90;4.00;;;;;;;27.04;67.37;96948.41;5015854;28;20025;-67
2023/08/12 07:19:19;;;;;;;8.20;4.30;;;;;;;27.15;66.53;96958.41;5015072;28;20102;-66
2023/08/12 07:21:44;;;;;;;11.10;4.00;;;;;;;26.84;68.34;96948.13;5014916;28;20031;-66
2023/08/12 07:24:09;;;;;;;7.15;4.20;;;;;;;26.68;67.64;96943.63;5011211;28;20026;-67
2023/08/12 07:26:35;;;;;;;14.68;4.50;;;;;;;26.79;67.65;96946.72;5012714;28;20080;-66
2023/08/12 07:29:00;;;;;;;7.93;4.60;;;;;;;26.17;69.43;96947.00;5011643;28;20390;-66
2023/08/12 07:31:26;;;;;;;8.60;4.45;;;;;;;24.97;79.03;96944.44;5012033;28;20044;-64
2023/08/12 07:33:51;;;;;;;8.30;5.05;;;;;;;24.90;79.93;96947.50;5014384;28;20030;-66
2023/08/12 07:36:16;;;;;;;10.73;4.90;;;;;;;25.12;79.44;96941.88;5029960;28;20446;-68
2023/08/12 07:38:42;;;;;;;10.30;4.70;;;;;;;25.48;76.67;96943.31;5014873;28;20036;-66
2023/08/12 07:41:07;;;;;;;8.32;4.72;;;;;;;25.70;76.42;96949.66;5013859;28;20088;-67
2023/08/12 07:43:33;;;;;;;5.60;4.15;;;;;;;26.19;74.53;96958.53;5012836;28;20062;-65
2023/08/12 07:45:58;;;;;;;8.75;4.32;;;;;;;28.07;65.29;96965.75;5012931;28;20395;-65
2023/08/12 07:48:24;;;;;;;9.15;3.90;;;;;;;29.57;58.18;96964.81;5013049;28;20030;-66
2023/08/12 07:50:59;;;;;;;7.28;4.63;;;;;;;29.00;55.42;96972.28;5013426;28;20486;-66
2023/08/12 07:53:25;;;;;;;8.80;4.35;;;;;;;30.15;53.25;96982.94;5012478;28;20068;-65
2023/08/12 07:55:51;;;;;;;7.68;4.07;;;;;;;31.31;50.57;96986.13;5012762;28;20104;-66
2023/08/12 07:58:17;;;;;;;8.27;3.85;;;;;;;32.72;45.15;96983.56;5012475;28;20038;-66
2023/08/12 08:00:43;;;;;;;7.38;3.97;;;;;;;33.72;41.52;96987.88;5031880;28;20036;-66
2023/08/12 08:03:08;;;;;;;8.00;3.63;;;;;;;33.53;41.37;96986.84;5034008;28;20100;-66
2023/08/12 08:05:34;;;;;;;7.63;3.88;;;;;;;32.74;41.83;96984.56;5033882;28;20025;-65
2023/08/12 08:07:59;;;;;;;7.53;3.60;;;;;;;33.19;41.53;96974.66;5034576;28;20029;-66
2023/08/12 08:10:25;;;;;;;5.90;3.80;;;;;;;33.84;40.42;96977.28;5032685;28;20445;-66
2023/08/12 08:12:50;;;;;;;4.70;3.38;;;;;;;33.85;39.17;96978.06;5031777;28;20048;-65
2023/08/12 08:15:15;;;;;;;7.38;4.18;;;;;;;31.25;45.28;96969.09;5032285;28;20029;-65
2023/08/12 08:17:41;;;;;;;9.45;3.92;;;;;;;32.46;44.19;96964.59;5032630;28;20034;-65
2023/08/12 08:20:07;;;;;;;5.88;3.80;;;;;;;32.07;45.10;96959.50;5032440;28;20039;-64
2023/08/12 08:22:32;;;;;;;5.93;3.53;;;;;;;31.04;47.34;96957.09;5032574;28;20053;-64
2023/08/12 08:24:58;;;;;;;5.97;4.38;;;;;;;29.25;52.05;96956.88;5032900;28;20029;-64
2023/08/12 08:27:23;;;;;;;7.75;3.72;;;;;;;30.75;48.66;96963.66;5032407;28;20112;-64
2023/08/12 08:29:48;;;;;;;7.28;3.90;;;;;;;32.12;45.48;96974.97;5032625;28;20018;-64
2023/08/12 08:32:14;;;;;;;5.65;3.60;;;;;;;32.45;44.59;96977.22;5032547;28;20051;-64
2023/08/12 08:34:39;;;;;;;6.57;3.70;;;;;;;31.47;45.22;96981.13;5033063;28;20105;-66
2023/08/12 08:37:05;;;;;;;5.45;3.72;;;;;;;31.49;46.41;96972.94;5033243;28;20030;-63
2023/08/12 08:39:30;;;;;;;7.25;3.60;;;;;;;30.43;48.18;96972.03;5032203;28;20045;-65
2023/08/12 08:41:56;;;;;;;8.63;4.20;;;;;;;30.43;49.11;96972.03;5031672;28;20415;-63
2023/08/12 08:44:23;;;;;;;6.82;4.20;;;;;;;31.55;47.37;96976.63;5035962;28;20029;-64
2023/08/12 08:46:52;;;;;;;6.18;4.03;;;;;;;32.09;45.59;96978.81;5037095;28;20385;-64
2023/08/12 08:49:18;;;;;;;6.18;3.80;;;;;;;32.22;44.47;96981.22;5036879;28;20025;-64
2023/08/12 08:51:46;;;;;;;7.32;4.05;;;;;;;31.30;45.31;96989.47;5036450;28;20040;-65
2023/08/12 08:54:12;;;;;;;7.25;3.88;;;;;;;31.28;46.00;96998.47;5036081;28;20063;-65
2023/08/12 08:56:38;;;;;;;5.32;3.97;;;;;;;30.99;47.57;96979.63;5036184;28;20036;-64
2023/08/12 08:59:04;;;;;;;6.57;3.80;;;;;;;30.28;51.66;96980.53;5035960;28;20029;-66
2023/08/12 09:01:30;;;;;;;6.03;4.13;;;;;;;30.45;51.51;96988.47;5036265;28;20116;-65
2023/08/12 09:03:57;;;;;;;6.53;4.55;;;;;;;29.61;53.55;96982.34;5035999;28;20029;-64
2023/08/12 09:06:24;;;;;;;7.05;4.53;;;;;;;29.10;55.97;96982.22;5036330;28;20371;-65
2023/08/12 09:08:51;;;;;;;9.20;4.25;;;;;;;28.52;58.21;96972.34;5036613;28;20030;-64
2023/08/12 09:11:18;;;;;;;8.13;5.03;;;;;;;28.73;59.68;96976.91;5035394;28;20107;-65
2023/08/12 09:13:44;;;;;;;7.25;4.43;;;;;;;29.20;59.08;96979.34;5036532;28;20041;-65
2023/08/12 09:16:09;;;;;;;8.05;4.40;;;;;;;29.48;56.86;96983.41;5035460;28;20033;-65
2023/08/12 09:18:37;;;;;;;7.50;4.50;;;;;;;29.07;57.04;96980.38;5036325;28;20057;-66
2023/08/12 09:21:03;;;;;;;9.32;5.05;;;;;;;28.24;56.77;97000.69;5035436;28;20446;-64
2023/08/12 09:23:34;;;;;;;8.95;4.80;;;;;;;27.73;60.05;96991.06;5036381;28;20390;-64
2023/08/12 09:26:01;;;;;;;10.80;5.07;;;;;;;27.68;62.82;96986.09;5036731;28;20041;-64
2023/08/12 09:28:26;;;;;;;10.77;5.38;;;;;;;26.96;67.16;96985.75;5026898;28;20034;-64
2023/08/12 09:30:52;;;;;;;9.98;4.95;;;;;;;26.76;66.16;96998.25;5015718;28;20164;-66
2023/08/12 09:33:24;;;;;;;8.32;5.05;;;;;;;27.01;67.09;96993.53;5021297;28;20517;-66
2023/08/12 09:35:50;;;;;;;11.70;5.75;;;;;;;26.86;69.07;96993.41;5020553;28;20026;-64
2023/08/12 09:38:15;;;;;;;9.50;5.03;;;;;;;27.03;67.25;96991.84;5023805;28;20090;-68
2023/08/12 09:40:41;;;;;;;29.08;21.58;;;;;;;28.03;63.95;96989.22;5018848;28;20034;-66
2023/08/12 09:43:08;;;;;;;7.85;4.30;;;;;;;28.55;62.19;96986.28;5018316;28;20061;-66
2023/08/12 09:45:34;;;;;;;6.43;4.43;;;;;;;30.32;55.74;96997.28;5032516;28;20033;-67
2023/08/12 09:48:00;;;;;;;7.97;4.53;;;;;;;31.04;52.71;96985.38;5037177;28;20029;-67
2023/08/12 09:50:26;;;;;;;5.57;4.18;;;;;;;31.57;50.81;96988.97;5036763;28;20543;-67
2023/08/12 09:52:53;;;;;;;5.20;4.10;;;;;;;31.54;50.35;96986.38;5034772;28;20032;-67
2023/08/12 09:55:20;;;;;;;9.38;4.22;;;;;;;31.26;50.65;96984.03;5034131;28;20040;-67
2023/08/12 09:57:52;;;;;;;6.40;3.97;;;;;;;31.18;50.73;96980.88;5035043;28;20034;-68
2023/08/12 10:00:19;;;;;;;5.93;4.15;;;;;;;30.33;55.19;96973.41;5034226;28;20025;-67
2023/08/12 10:02:45;;;;;;;6.15;4.10;;;;;;;30.81;52.47;96975.03;5034092;28;20044;-67
2023/08/12 10:05:28;;;;;;;6.07;4.13;;;;;;;31.58;51.13;96978.41;5034373;28;20075;-66
2023/08/12 10:07:54;;;;;;;6.22;4.03;;;;;;;33.58;45.80;96985.28;5034669;28;20029;-65
2023/08/12 10:10:22;;;;;;;7.40;4.03;;;;;;;34.19;44.42;96989.41;5035288;28;20040;-66
2023/08/12 10:12:48;;;;;;;;;;;;;;;33.71;45.46;96996.94;5034880;28;20072;-66
2023/08/12 10:15:14;;;;;;;7.35;4.00;;;;;;;33.52;45.86;96988.88;5034271;28;19913;-68
2023/08/12 10:17:41;;;;;;;6.35;4.03;;;;;;;33.18;46.51;96979.56;5034770;28;20469;-67
2023/08/12 10:20:08;;;;;;;5.85;3.97;;;;;;;32.91;47.31;96972.50;5034380;28;20433;-67
2023/08/12 10:22:35;;;;;;;7.55;4.38;;;;;;;33.10;46.77;96981.34;5033876;28;20037;-67
2023/08/12 10:25:03;;;;;;;8.75;4.65;;;;;;;33.48;46.10;96979.09;5034236;28;20039;-67
2023/08/12 10:27:28;;;;;;;5.20;4.00;;;;;;;33.30;45.12;96974.69;5034309;28;20065;-68
2023/08/12 10:29:57;;;;;;;7.13;4.10;;;;;;;33.01;46.46;96975.88;5016083;28;20130;-68
2023/08/12 10:32:24;;;;;;;6.63;4.18;;;;;;;32.73;46.49;96974.50;5034052;28;20177;-67
2023/08/12 10:34:56;;;;;;;9.02;4.13;;;;;;;32.03;47.65;96975.16;5034455;28;20061;-67
2023/08/12 10:37:27;;;;;;;7.75;4.18;;;;;;;30.91;49.70;96981.31;5034427;28;20036;-67
2023/08/12 10:39:55;;;;;;;9.73;4.35;;;;;;;30.71;52.87;96980.06;5034193;28;20034;-67
2023/08/12 10:42:40;;;;;;;9.30;4.27;;;;;;;29.86;55.21;96990.22;5034604;28;20031;-67
2023/08/12 10:45:05;;;;;;;5.82;4.40;;;;;;;29.51;56.57;96981.66;5033629;28;20030;-67
2023/08/12 10:47:32;;;;;;;8.15;4.97;;;;;;;29.09;59.94;96977.84;5033765;28;20041;-67
2023/08/12 10:49:58;;;;;;;7.50;5.55;;;;;;;28.45;62.88;96972.69;5033724;28;20026;-67
2023/08/12 10:52:32;;;;;;;6.82;5.30;;;;;;;27.81;63.50;96977.44;5032089;28;20556;-67
2023/08/12 10:55:20;;;;;;;9.68;5.70;;;;;;;27.01;66.53;96979.50;5033468;28;20029;-67
2023/08/12 10:57:47;;;;;;;10.68;5.45;;;;;;;26.55;69.49;96982.31;5033679;28;20033;-68
2023/08/12 11:00:22;;;;;;;11.88;5.93;;;;;;;26.33;72.00;96995.22;5033507;28;20041;-67
2023/08/12 11:02:53;;;;;;;11.27;7.18;;;;;;;25.96;76.12;96991.53;5033239;28;20100;-67
2023/08/12 11:05:19;;;;;;;12.75;7.03;;;;;;;25.50;79.73;96986.50;5033072;28;20525;-67
2023/08/12 11:08:05;;;;;;;11.10;7.07;;;;;;;25.21;84.78;96977.56;5032475;28;20060;-67
2023/08/12 11:10:32;;;;;;;12.07;8.38;;;;;;;24.46;92.41;96976.22;5031963;28;20036;-67
2023/08/12 11:12:59;;;;;;;12.90;7.68;;;;;;;24.45;94.06;96982.28;5032653;28;20033;-66
2023/08/12 11:15:47;;;;;;;11.25;8.02;;;;;;;24.80;95.35;96975.44;5032934;28;20040;-67
2023/08/12 11:18:14;;;;;;;10.77;7.55;;;;;;;24.76;97.34;96977.59;5032731;28;20111;-67
2023/08/12 11:20:40;;;;;;;10.35;7.60;;;;;;;25.11;93.87;96982.34;5032923;28;20059;-67
2023/08/12 11:23:07;;;;;;;10.50;6.90;;;;;;;25.33;90.47;96988.72;5032674;28;20036;-67